sensor_id;sensor_type;location;lat;lon;timestamp;P1;durP1;ratioP1;P2;durP2;ratioP2
76495;SDS011;65329;52.544;4.662;2024-03-25T00:03:42;8.32;;;1.30;;
76495;SDS011;65329;52.544;4.662;2024-03-25T00:08:34;6.50;;;1.15;;
76495;SDS011;65329;52.544;4.662;2024-03-25T00:11:00;5.50;;;0.80;;
76495;SDS011;65329;52.544;4.662;2024-03-25T00:15:52;8.02;;;1.38;;
76495;SDS011;65329;52.544;4.662;2024-03-25T00:20:44;8.07;;;1.00;;
76495;SDS011;65329;52.544;4.662;2024-03-25T00:25:37;9.77;;;1.65;;
76495;SDS011;65329;52.544;4.662;2024-03-25T00:30:30;13.13;;;2.05;;
76495;SDS011;65329;52.544;4.662;2024-03-25T00:32:56;13.10;;;1.70;;
76495;SDS011;65329;52.544;4.662;2024-03-25T00:35:22;7.57;;;1.38;;
76495;SDS011;65329;52.544;4.662;2024-03-25T00:37:48;10.18;;;1.80;;
76495;SDS011;65329;52.544;4.662;2024-03-25T00:40:15;6.57;;;1.60;;
76495;SDS011;65329;52.544;4.662;2024-03-25T00:42:41;8.77;;;1.35;;
76495;SDS011;65329;52.544;4.662;2024-03-25T00:47:33;9.13;;;1.55;;
76495;SDS011;65329;52.544;4.662;2024-03-25T00:49:59;5.82;;;1.45;;
76495;SDS011;65329;52.544;4.662;2024-03-25T00:52:25;7.15;;;1.80;;
76495;SDS011;65329;52.544;4.662;2024-03-25T00:57:18;12.63;;;1.50;;
76495;SDS011;65329;52.544;4.662;2024-03-25T00:59:44;12.77;;;1.38;;
76495;SDS011;65329;52.544;4.662;2024-03-25T01:04:36;8.73;;;1.15;;
76495;SDS011;65329;52.544;4.662;2024-03-25T01:09:28;9.60;;;1.10;;
76495;SDS011;65329;52.544;4.662;2024-03-25T01:11:55;3.97;;;0.95;;
76495;SDS011;65329;52.544;4.662;2024-03-25T01:16:47;8.70;;;0.90;;
76495;SDS011;65329;52.544;4.662;2024-03-25T01:21:39;6.75;;;1.25;;
76495;SDS011;65329;52.544;4.662;2024-03-25T01:26:31;9.98;;;1.25;;
76495;SDS011;65329;52.544;4.662;2024-03-25T01:31:23;2.03;;;1.05;;
76495;SDS011;65329;52.544;4.662;2024-03-25T01:36:14;6.30;;;1.58;;
76495;SDS011;65329;52.544;4.662;2024-03-25T01:38:43;6.05;;;1.00;;
76495;SDS011;65329;52.544;4.662;2024-03-25T01:41:10;4.25;;;0.82;;
76495;SDS011;65329;52.544;4.662;2024-03-25T01:43:38;8.20;;;1.25;;
76495;SDS011;65329;52.544;4.662;2024-03-25T01:46:04;9.73;;;0.90;;
76495;SDS011;65329;52.544;4.662;2024-03-25T01:48:31;7.30;;;1.33;;
76495;SDS011;65329;52.544;4.662;2024-03-25T01:50:57;5.13;;;1.45;;
76495;SDS011;65329;52.544;4.662;2024-03-25T01:53:26;10.23;;;1.30;;
76495;SDS011;65329;52.544;4.662;2024-03-25T01:55:55;6.28;;;1.75;;
76495;SDS011;65329;52.544;4.662;2024-03-25T01:58:23;13.30;;;1.85;;
76495;SDS011;65329;52.544;4.662;2024-03-25T02:00:52;6.55;;;1.05;;
76495;SDS011;65329;52.544;4.662;2024-03-25T02:03:20;11.68;;;2.17;;
76495;SDS011;65329;52.544;4.662;2024-03-25T02:05:50;5.80;;;1.38;;
76495;SDS011;65329;52.544;4.662;2024-03-25T02:08:18;8.55;;;1.75;;
76495;SDS011;65329;52.544;4.662;2024-03-25T02:10:44;8.00;;;1.75;;
76495;SDS011;65329;52.544;4.662;2024-03-25T02:13:11;6.10;;;1.40;;
76495;SDS011;65329;52.544;4.662;2024-03-25T02:18:03;11.23;;;1.42;;
76495;SDS011;65329;52.544;4.662;2024-03-25T02:20:29;7.70;;;1.35;;
76495;SDS011;65329;52.544;4.662;2024-03-25T02:25:21;8.38;;;0.95;;
76495;SDS011;65329;52.544;4.662;2024-03-25T02:27:47;7.32;;;0.93;;
76495;SDS011;65329;52.544;4.662;2024-03-25T02:32:39;2.53;;;0.43;;
76495;SDS011;65329;52.544;4.662;2024-03-25T02:35:10;6.25;;;0.98;;
76495;SDS011;65329;52.544;4.662;2024-03-25T02:37:39;8.95;;;1.00;;
76495;SDS011;65329;52.544;4.662;2024-03-25T02:40:06;7.72;;;1.25;;
76495;SDS011;65329;52.544;4.662;2024-03-25T02:42:35;8.60;;;1.63;;
76495;SDS011;65329;52.544;4.662;2024-03-25T02:45:02;7.40;;;1.15;;
76495;SDS011;65329;52.544;4.662;2024-03-25T02:47:29;8.57;;;1.48;;
76495;SDS011;65329;52.544;4.662;2024-03-25T02:49:55;4.45;;;0.90;;
76495;SDS011;65329;52.544;4.662;2024-03-25T02:54:46;5.50;;;0.82;;
76495;SDS011;65329;52.544;4.662;2024-03-25T02:59:39;8.57;;;1.10;;
76495;SDS011;65329;52.544;4.662;2024-03-25T03:04:30;7.13;;;1.40;;
76495;SDS011;65329;52.544;4.662;2024-03-25T03:06:56;4.53;;;0.90;;
76495;SDS011;65329;52.544;4.662;2024-03-25T03:09:23;6.00;;;0.77;;
76495;SDS011;65329;52.544;4.662;2024-03-25T03:11:49;4.30;;;0.90;;
76495;SDS011;65329;52.544;4.662;2024-03-25T03:16:41;7.05;;;1.50;;
76495;SDS011;65329;52.544;4.662;2024-03-25T03:19:07;8.05;;;1.30;;
76495;SDS011;65329;52.544;4.662;2024-03-25T03:21:33;6.38;;;1.40;;
76495;SDS011;65329;52.544;4.662;2024-03-25T03:26:25;6.40;;;0.82;;
76495;SDS011;65329;52.544;4.662;2024-03-25T03:28:55;5.53;;;0.95;;
76495;SDS011;65329;52.544;4.662;2024-03-25T03:31:22;7.70;;;1.23;;
76495;SDS011;65329;52.544;4.662;2024-03-25T03:33:49;11.27;;;2.25;;
76495;SDS011;65329;52.544;4.662;2024-03-25T03:36:16;5.80;;;1.10;;
76495;SDS011;65329;52.544;4.662;2024-03-25T03:38:42;6.13;;;0.93;;
76495;SDS011;65329;52.544;4.662;2024-03-25T03:43:34;9.43;;;1.35;;
76495;SDS011;65329;52.544;4.662;2024-03-25T03:48:27;6.70;;;1.10;;
76495;SDS011;65329;52.544;4.662;2024-03-25T03:50:53;8.38;;;0.73;;
76495;SDS011;65329;52.544;4.662;2024-03-25T03:56:02;6.90;;;0.77;;
76495;SDS011;65329;52.544;4.662;2024-03-25T03:58:33;5.88;;;1.13;;
76495;SDS011;65329;52.544;4.662;2024-03-25T04:00:59;3.78;;;0.98;;
76495;SDS011;65329;52.544;4.662;2024-03-25T04:03:26;8.95;;;1.45;;
76495;SDS011;65329;52.544;4.662;2024-03-25T04:05:52;5.07;;;0.98;;
76495;SDS011;65329;52.544;4.662;2024-03-25T04:10:44;7.32;;;0.95;;
76495;SDS011;65329;52.544;4.662;2024-03-25T04:13:11;6.63;;;1.50;;
76495;SDS011;65329;52.544;4.662;2024-03-25T04:15:38;6.07;;;0.80;;
76495;SDS011;65329;52.544;4.662;2024-03-25T04:18:06;9.70;;;1.05;;
76495;SDS011;65329;52.544;4.662;2024-03-25T04:20:39;11.88;;;1.55;;
76495;SDS011;65329;52.544;4.662;2024-03-25T04:23:06;10.02;;;1.23;;
76495;SDS011;65329;52.544;4.662;2024-03-25T04:25:33;5.60;;;0.70;;
76495;SDS011;65329;52.544;4.662;2024-03-25T04:28:00;7.95;;;1.17;;
76495;SDS011;65329;52.544;4.662;2024-03-25T04:32:52;6.45;;;1.40;;
76495;SDS011;65329;52.544;4.662;2024-03-25T04:35:18;7.75;;;1.13;;
76495;SDS011;65329;52.544;4.662;2024-03-25T04:37:44;5.28;;;1.30;;
76495;SDS011;65329;52.544;4.662;2024-03-25T04:40:11;10.77;;;1.77;;
76495;SDS011;65329;52.544;4.662;2024-03-25T04:42:40;7.28;;;0.88;;
76495;SDS011;65329;52.544;4.662;2024-03-25T04:45:07;9.13;;;1.05;;
76495;SDS011;65329;52.544;4.662;2024-03-25T04:47:33;3.22;;;0.82;;
76495;SDS011;65329;52.544;4.662;2024-03-25T04:52:25;4.30;;;0.70;;
76495;SDS011;65329;52.544;4.662;2024-03-25T04:54:51;10.25;;;0.82;;
76495;SDS011;65329;52.544;4.662;2024-03-25T04:59:44;7.43;;;1.85;;
76495;SDS011;65329;52.544;4.662;2024-03-25T05:04:36;6.30;;;0.80;;
76495;SDS011;65329;52.544;4.662;2024-03-25T05:07:02;4.93;;;1.30;;
76495;SDS011;65329;52.544;4.662;2024-03-25T05:09:28;4.32;;;0.63;;
76495;SDS011;65329;52.544;4.662;2024-03-25T05:14:20;8.43;;;1.05;;
76495;SDS011;65329;52.544;4.662;2024-03-25T05:16:45;5.70;;;0.95;;
76495;SDS011;65329;52.544;4.662;2024-03-25T05:19:11;6.35;;;0.93;;
76495;SDS011;65329;52.544;4.662;2024-03-25T05:24:03;5.22;;;0.80;;
76495;SDS011;65329;52.544;4.662;2024-03-25T05:26:29;3.33;;;0.85;;
76495;SDS011;65329;52.544;4.662;2024-03-25T05:31:21;6.20;;;1.55;;
76495;SDS011;65329;52.544;4.662;2024-03-25T05:33:48;4.05;;;0.52;;
76495;SDS011;65329;52.544;4.662;2024-03-25T05:38:40;5.40;;;0.98;;
76495;SDS011;65329;52.544;4.662;2024-03-25T05:41:08;2.20;;;0.50;;
76495;SDS011;65329;52.544;4.662;2024-03-25T05:43:37;5.70;;;1.17;;
76495;SDS011;65329;52.544;4.662;2024-03-25T05:46:04;3.80;;;0.93;;
76495;SDS011;65329;52.544;4.662;2024-03-25T05:48:30;7.60;;;0.90;;
76495;SDS011;65329;52.544;4.662;2024-03-25T05:53:26;7.97;;;1.08;;
76495;SDS011;65329;52.544;4.662;2024-03-25T05:55:53;7.05;;;1.40;;
76495;SDS011;65329;52.544;4.662;2024-03-25T06:00:48;5.30;;;0.93;;
76495;SDS011;65329;52.544;4.662;2024-03-25T06:03:14;6.35;;;1.23;;
76495;SDS011;65329;52.544;4.662;2024-03-25T06:05:41;4.63;;;1.02;;
76495;SDS011;65329;52.544;4.662;2024-03-25T06:08:07;5.90;;;1.30;;
76495;SDS011;65329;52.544;4.662;2024-03-25T06:10:43;6.28;;;1.13;;
76495;SDS011;65329;52.544;4.662;2024-03-25T06:13:09;6.50;;;1.05;;
76495;SDS011;65329;52.544;4.662;2024-03-25T06:15:36;7.82;;;0.77;;
76495;SDS011;65329;52.544;4.662;2024-03-25T06:20:27;8.25;;;1.40;;
76495;SDS011;65329;52.544;4.662;2024-03-25T06:25:19;7.35;;;1.05;;
76495;SDS011;65329;52.544;4.662;2024-03-25T06:30:12;9.82;;;1.00;;
76495;SDS011;65329;52.544;4.662;2024-03-25T06:32:57;8.07;;;1.75;;
76495;SDS011;65329;52.544;4.662;2024-03-25T06:35:42;6.78;;;1.23;;
76495;SDS011;65329;52.544;4.662;2024-03-25T06:38:12;6.07;;;1.50;;
76495;SDS011;65329;52.544;4.662;2024-03-25T06:40:38;3.95;;;1.42;;
76495;SDS011;65329;52.544;4.662;2024-03-25T06:45:30;5.50;;;1.50;;
76495;SDS011;65329;52.544;4.662;2024-03-25T06:47:56;6.88;;;1.60;;
76495;SDS011;65329;52.544;4.662;2024-03-25T06:50:25;5.43;;;1.30;;
76495;SDS011;65329;52.544;4.662;2024-03-25T06:52:52;8.55;;;2.08;;
76495;SDS011;65329;52.544;4.662;2024-03-25T06:55:18;10.23;;;1.95;;
76495;SDS011;65329;52.544;4.662;2024-03-25T06:57:48;5.53;;;1.52;;
76495;SDS011;65329;52.544;4.662;2024-03-25T07:00:14;4.43;;;1.48;;
76495;SDS011;65329;52.544;4.662;2024-03-25T07:02:41;4.15;;;1.50;;
76495;SDS011;65329;52.544;4.662;2024-03-25T07:05:07;6.13;;;1.70;;
76495;SDS011;65329;52.544;4.662;2024-03-25T07:07:33;10.00;;;1.20;;
76495;SDS011;65329;52.544;4.662;2024-03-25T07:10:00;10.27;;;1.95;;
76495;SDS011;65329;52.544;4.662;2024-03-25T07:12:27;4.32;;;1.00;;
76495;SDS011;65329;52.544;4.662;2024-03-25T07:14:54;2.03;;;0.70;;
76495;SDS011;65329;52.544;4.662;2024-03-25T07:17:20;5.85;;;0.85;;
76495;SDS011;65329;52.544;4.662;2024-03-25T07:19:47;4.82;;;1.13;;
76495;SDS011;65329;52.544;4.662;2024-03-25T07:22:14;8.95;;;1.52;;
76495;SDS011;65329;52.544;4.662;2024-03-25T07:24:40;8.35;;;1.13;;
76495;SDS011;65329;52.544;4.662;2024-03-25T07:27:06;3.95;;;0.88;;
76495;SDS011;65329;52.544;4.662;2024-03-25T07:29:33;5.85;;;0.80;;
76495;SDS011;65329;52.544;4.662;2024-03-25T07:31:59;8.15;;;1.08;;
76495;SDS011;65329;52.544;4.662;2024-03-25T07:34:25;3.85;;;0.93;;
76495;SDS011;65329;52.544;4.662;2024-03-25T07:36:52;3.97;;;1.20;;
76495;SDS011;65329;52.544;4.662;2024-03-25T07:39:18;3.75;;;0.80;;
76495;SDS011;65329;52.544;4.662;2024-03-25T07:41:44;4.03;;;0.95;;
76495;SDS011;65329;52.544;4.662;2024-03-25T07:44:10;8.00;;;1.20;;
76495;SDS011;65329;52.544;4.662;2024-03-25T07:46:36;4.65;;;1.40;;
76495;SDS011;65329;52.544;4.662;2024-03-25T07:49:02;5.70;;;1.08;;
76495;SDS011;65329;52.544;4.662;2024-03-25T07:51:28;2.50;;;1.00;;
76495;SDS011;65329;52.544;4.662;2024-03-25T07:53:54;1.77;;;1.00;;
76495;SDS011;65329;52.544;4.662;2024-03-25T07:56:20;4.57;;;1.00;;
76495;SDS011;65329;52.544;4.662;2024-03-25T07:58:46;3.88;;;1.02;;
76495;SDS011;65329;52.544;4.662;2024-03-25T08:01:12;4.53;;;0.80;;
76495;SDS011;65329;52.544;4.662;2024-03-25T08:03:38;3.33;;;0.98;;
76495;SDS011;65329;52.544;4.662;2024-03-25T08:06:04;4.47;;;0.80;;
76495;SDS011;65329;52.544;4.662;2024-03-25T08:08:30;3.83;;;0.70;;
76495;SDS011;65329;52.544;4.662;2024-03-25T08:10:55;6.18;;;0.60;;
76495;SDS011;65329;52.544;4.662;2024-03-25T08:13:21;4.50;;;0.88;;
76495;SDS011;65329;52.544;4.662;2024-03-25T08:15:48;7.05;;;1.30;;
76495;SDS011;65329;52.544;4.662;2024-03-25T08:18:14;4.47;;;0.93;;
76495;SDS011;65329;52.544;4.662;2024-03-25T08:20:40;5.70;;;0.80;;
76495;SDS011;65329;52.544;4.662;2024-03-25T08:23:06;3.20;;;0.85;;
76495;SDS011;65329;52.544;4.662;2024-03-25T08:25:33;4.93;;;1.05;;
76495;SDS011;65329;52.544;4.662;2024-03-25T08:27:58;4.47;;;1.20;;
76495;SDS011;65329;52.544;4.662;2024-03-25T08:30:24;5.50;;;1.42;;
76495;SDS011;65329;52.544;4.662;2024-03-25T08:32:51;4.63;;;0.77;;
76495;SDS011;65329;52.544;4.662;2024-03-25T08:35:17;6.10;;;1.30;;
76495;SDS011;65329;52.544;4.662;2024-03-25T08:37:43;4.38;;;0.80;;
76495;SDS011;65329;52.544;4.662;2024-03-25T08:40:09;5.60;;;1.15;;
76495;SDS011;65329;52.544;4.662;2024-03-25T08:42:35;3.85;;;1.08;;
76495;SDS011;65329;52.544;4.662;2024-03-25T08:45:02;4.70;;;0.93;;
76495;SDS011;65329;52.544;4.662;2024-03-25T08:47:28;5.93;;;1.20;;
76495;SDS011;65329;52.544;4.662;2024-03-25T08:49:54;5.78;;;1.48;;
76495;SDS011;65329;52.544;4.662;2024-03-25T08:52:20;1.83;;;0.82;;
76495;SDS011;65329;52.544;4.662;2024-03-25T08:54:46;5.95;;;1.13;;
76495;SDS011;65329;52.544;4.662;2024-03-25T08:57:12;3.78;;;1.27;;
76495;SDS011;65329;52.544;4.662;2024-03-25T08:59:39;5.93;;;1.48;;
76495;SDS011;65329;52.544;4.662;2024-03-25T09:02:06;6.35;;;1.30;;
76495;SDS011;65329;52.544;4.662;2024-03-25T09:04:33;7.15;;;1.25;;
76495;SDS011;65329;52.544;4.662;2024-03-25T09:06:59;6.20;;;1.23;;
76495;SDS011;65329;52.544;4.662;2024-03-25T09:09:25;5.32;;;1.48;;
76495;SDS011;65329;52.544;4.662;2024-03-25T09:12:10;7.05;;;1.38;;
76495;SDS011;65329;52.544;4.662;2024-03-25T09:14:36;5.53;;;1.30;;
76495;SDS011;65329;52.544;4.662;2024-03-25T09:17:04;12.25;;;2.45;;
76495;SDS011;65329;52.544;4.662;2024-03-25T09:19:30;5.80;;;1.30;;
76495;SDS011;65329;52.544;4.662;2024-03-25T09:21:56;7.47;;;1.63;;
76495;SDS011;65329;52.544;4.662;2024-03-25T09:24:24;6.65;;;1.83;;
76495;SDS011;65329;52.544;4.662;2024-03-25T09:26:50;8.07;;;1.73;;
76495;SDS011;65329;52.544;4.662;2024-03-25T09:29:17;6.10;;;2.05;;
76495;SDS011;65329;52.544;4.662;2024-03-25T09:31:42;8.70;;;1.88;;
76495;SDS011;65329;52.544;4.662;2024-03-25T09:34:08;8.40;;;1.65;;
76495;SDS011;65329;52.544;4.662;2024-03-25T09:36:34;9.68;;;2.13;;
76495;SDS011;65329;52.544;4.662;2024-03-25T09:39:00;7.90;;;1.83;;
76495;SDS011;65329;52.544;4.662;2024-03-25T09:41:27;8.70;;;1.92;;
76495;SDS011;65329;52.544;4.662;2024-03-25T09:43:56;7.75;;;1.73;;
76495;SDS011;65329;52.544;4.662;2024-03-25T09:46:22;9.45;;;1.80;;
76495;SDS011;65329;52.544;4.662;2024-03-25T09:48:52;6.68;;;2.10;;
76495;SDS011;65329;52.544;4.662;2024-03-25T09:51:19;6.53;;;2.15;;
76495;SDS011;65329;52.544;4.662;2024-03-25T09:53:46;9.93;;;1.60;;
76495;SDS011;65329;52.544;4.662;2024-03-25T09:56:12;9.15;;;2.08;;
76495;SDS011;65329;52.544;4.662;2024-03-25T09:58:42;10.23;;;2.08;;
76495;SDS011;65329;52.544;4.662;2024-03-25T10:01:10;7.00;;;1.70;;
76495;SDS011;65329;52.544;4.662;2024-03-25T10:03:36;10.65;;;1.90;;
76495;SDS011;65329;52.544;4.662;2024-03-25T10:06:02;7.07;;;1.40;;
76495;SDS011;65329;52.544;4.662;2024-03-25T10:08:29;5.22;;;1.52;;
76495;SDS011;65329;52.544;4.662;2024-03-25T10:10:57;8.85;;;1.77;;
76495;SDS011;65329;52.544;4.662;2024-03-25T10:13:26;5.30;;;1.48;;
76495;SDS011;65329;52.544;4.662;2024-03-25T10:15:52;8.15;;;1.50;;
76495;SDS011;65329;52.544;4.662;2024-03-25T10:18:20;5.90;;;1.75;;
76495;SDS011;65329;52.544;4.662;2024-03-25T10:20:50;8.45;;;1.88;;
76495;SDS011;65329;52.544;4.662;2024-03-25T10:23:25;9.98;;;2.13;;
76495;SDS011;65329;52.544;4.662;2024-03-25T10:25:52;4.50;;;1.67;;
76495;SDS011;65329;52.544;4.662;2024-03-25T10:28:19;8.55;;;2.00;;
76495;SDS011;65329;52.544;4.662;2024-03-25T10:30:45;9.82;;;2.03;;
76495;SDS011;65329;52.544;4.662;2024-03-25T10:33:11;7.18;;;1.80;;
76495;SDS011;65329;52.544;4.662;2024-03-25T10:35:38;8.45;;;1.77;;
76495;SDS011;65329;52.544;4.662;2024-03-25T10:38:08;9.88;;;2.13;;
76495;SDS011;65329;52.544;4.662;2024-03-25T10:40:38;6.75;;;2.10;;
76495;SDS011;65329;52.544;4.662;2024-03-25T10:43:09;8.82;;;2.05;;
76495;SDS011;65329;52.544;4.662;2024-03-25T10:48:19;7.60;;;2.40;;
76495;SDS011;65329;52.544;4.662;2024-03-25T10:50:50;7.45;;;2.63;;
76495;SDS011;65329;52.544;4.662;2024-03-25T10:53:19;8.27;;;2.05;;
76495;SDS011;65329;52.544;4.662;2024-03-25T10:55:46;7.55;;;1.70;;
76495;SDS011;65329;52.544;4.662;2024-03-25T10:58:16;9.02;;;1.90;;
76495;SDS011;65329;52.544;4.662;2024-03-25T11:00:46;5.78;;;1.70;;
76495;SDS011;65329;52.544;4.662;2024-03-25T11:03:13;7.53;;;2.28;;
76495;SDS011;65329;52.544;4.662;2024-03-25T11:05:40;9.13;;;2.03;;
76495;SDS011;65329;52.544;4.662;2024-03-25T11:08:10;9.02;;;1.70;;
76495;SDS011;65329;52.544;4.662;2024-03-25T11:10:40;7.90;;;2.42;;
76495;SDS011;65329;52.544;4.662;2024-03-25T11:13:11;6.95;;;2.00;;
76495;SDS011;65329;52.544;4.662;2024-03-25T11:15:41;10.20;;;1.90;;
76495;SDS011;65329;52.544;4.662;2024-03-25T11:18:15;7.63;;;2.45;;
76495;SDS011;65329;52.544;4.662;2024-03-25T11:20:43;9.50;;;1.92;;
76495;SDS011;65329;52.544;4.662;2024-03-25T11:23:11;7.32;;;2.38;;
76495;SDS011;65329;52.544;4.662;2024-03-25T11:25:38;6.03;;;2.60;;
76495;SDS011;65329;52.544;4.662;2024-03-25T11:28:05;11.25;;;2.65;;
76495;SDS011;65329;52.544;4.662;2024-03-25T11:30:32;5.43;;;2.50;;
76495;SDS011;65329;52.544;4.662;2024-03-25T11:33:01;7.68;;;2.20;;
76495;SDS011;65329;52.544;4.662;2024-03-25T11:35:27;9.50;;;2.30;;
76495;SDS011;65329;52.544;4.662;2024-03-25T11:37:53;6.90;;;2.13;;
76495;SDS011;65329;52.544;4.662;2024-03-25T11:40:19;8.07;;;2.20;;
76495;SDS011;65329;52.544;4.662;2024-03-25T11:42:45;9.38;;;2.08;;
76495;SDS011;65329;52.544;4.662;2024-03-25T11:45:15;7.70;;;2.35;;
76495;SDS011;65329;52.544;4.662;2024-03-25T11:47:43;4.93;;;2.15;;
76495;SDS011;65329;52.544;4.662;2024-03-25T11:50:11;7.00;;;2.13;;
76495;SDS011;65329;52.544;4.662;2024-03-25T11:52:38;5.68;;;1.90;;
76495;SDS011;65329;52.544;4.662;2024-03-25T11:55:05;4.55;;;1.65;;
76495;SDS011;65329;52.544;4.662;2024-03-25T11:57:37;4.72;;;1.70;;
76495;SDS011;65329;52.544;4.662;2024-03-25T12:00:04;5.40;;;2.33;;
76495;SDS011;65329;52.544;4.662;2024-03-25T12:02:42;4.38;;;1.48;;
76495;SDS011;65329;52.544;4.662;2024-03-25T12:05:12;6.65;;;2.22;;
76495;SDS011;65329;52.544;4.662;2024-03-25T12:07:38;5.15;;;1.52;;
76495;SDS011;65329;52.544;4.662;2024-03-25T12:10:04;6.13;;;1.63;;
76495;SDS011;65329;52.544;4.662;2024-03-25T12:12:49;8.18;;;2.70;;
76495;SDS011;65329;52.544;4.662;2024-03-25T12:15:19;4.32;;;1.98;;
76495;SDS011;65329;52.544;4.662;2024-03-25T12:17:45;5.15;;;2.22;;
76495;SDS011;65329;52.544;4.662;2024-03-25T12:20:12;4.15;;;1.60;;
76495;SDS011;65329;52.544;4.662;2024-03-25T12:22:41;5.07;;;1.85;;
76495;SDS011;65329;52.544;4.662;2024-03-25T12:25:07;5.82;;;1.80;;
76495;SDS011;65329;52.544;4.662;2024-03-25T12:27:35;7.15;;;3.30;;
76495;SDS011;65329;52.544;4.662;2024-03-25T12:32:36;4.68;;;2.10;;
76495;SDS011;65329;52.544;4.662;2024-03-25T12:35:06;3.83;;;1.95;;
76495;SDS011;65329;52.544;4.662;2024-03-25T12:37:37;5.53;;;2.00;;
76495;SDS011;65329;52.544;4.662;2024-03-25T12:40:04;4.72;;;1.65;;
76495;SDS011;65329;52.544;4.662;2024-03-25T12:42:32;5.30;;;2.45;;
76495;SDS011;65329;52.544;4.662;2024-03-25T12:44:58;5.20;;;2.25;;
76495;SDS011;65329;52.544;4.662;2024-03-25T12:47:24;5.05;;;2.67;;
76495;SDS011;65329;52.544;4.662;2024-03-25T12:49:50;5.82;;;2.97;;
76495;SDS011;65329;52.544;4.662;2024-03-25T12:52:16;4.45;;;2.72;;
76495;SDS011;65329;52.544;4.662;2024-03-25T12:54:42;4.22;;;2.55;;
76495;SDS011;65329;52.544;4.662;2024-03-25T12:57:09;8.18;;;2.50;;
76495;SDS011;65329;52.544;4.662;2024-03-25T12:59:35;3.05;;;1.98;;
76495;SDS011;65329;52.544;4.662;2024-03-25T13:02:01;4.97;;;2.72;;
76495;SDS011;65329;52.544;4.662;2024-03-25T13:04:28;5.28;;;2.38;;
76495;SDS011;65329;52.544;4.662;2024-03-25T13:06:54;4.93;;;2.70;;
76495;SDS011;65329;52.544;4.662;2024-03-25T13:09:20;3.95;;;2.67;;
76495;SDS011;65329;52.544;4.662;2024-03-25T13:11:46;8.80;;;3.38;;
76495;SDS011;65329;52.544;4.662;2024-03-25T13:14:13;5.85;;;2.97;;
76495;SDS011;65329;52.544;4.662;2024-03-25T13:16:41;4.55;;;3.00;;
76495;SDS011;65329;52.544;4.662;2024-03-25T13:19:07;4.65;;;3.20;;
76495;SDS011;65329;52.544;4.662;2024-03-25T13:21:33;4.80;;;3.53;;
76495;SDS011;65329;52.544;4.662;2024-03-25T13:24:00;4.88;;;3.35;;
76495;SDS011;65329;52.544;4.662;2024-03-25T13:26:26;6.50;;;3.25;;
76495;SDS011;65329;52.544;4.662;2024-03-25T13:28:53;5.03;;;3.35;;
76495;SDS011;65329;52.544;4.662;2024-03-25T13:31:19;5.57;;;3.60;;
76495;SDS011;65329;52.544;4.662;2024-03-25T13:33:45;6.18;;;4.50;;
76495;SDS011;65329;52.544;4.662;2024-03-25T13:36:11;7.45;;;4.22;;
76495;SDS011;65329;52.544;4.662;2024-03-25T13:38:37;4.72;;;4.22;;
76495;SDS011;65329;52.544;4.662;2024-03-25T13:41:03;6.72;;;4.80;;
76495;SDS011;65329;52.544;4.662;2024-03-25T13:43:31;4.53;;;3.78;;
76495;SDS011;65329;52.544;4.662;2024-03-25T13:45:57;6.78;;;4.07;;
76495;SDS011;65329;52.544;4.662;2024-03-25T13:48:23;4.95;;;3.60;;
76495;SDS011;65329;52.544;4.662;2024-03-25T13:50:49;6.80;;;4.40;;
76495;SDS011;65329;52.544;4.662;2024-03-25T13:53:15;5.13;;;4.38;;
76495;SDS011;65329;52.544;4.662;2024-03-25T13:55:41;8.32;;;4.38;;
76495;SDS011;65329;52.544;4.662;2024-03-25T13:58:07;4.82;;;4.00;;
76495;SDS011;65329;52.544;4.662;2024-03-25T14:00:34;4.97;;;4.13;;
76495;SDS011;65329;52.544;4.662;2024-03-25T14:03:03;7.97;;;4.45;;
76495;SDS011;65329;52.544;4.662;2024-03-25T14:05:29;4.70;;;4.13;;
76495;SDS011;65329;52.544;4.662;2024-03-25T14:07:55;8.88;;;4.25;;
76495;SDS011;65329;52.544;4.662;2024-03-25T14:10:24;4.97;;;4.28;;
76495;SDS011;65329;52.544;4.662;2024-03-25T14:12:50;5.78;;;4.20;;
76495;SDS011;65329;52.544;4.662;2024-03-25T14:15:16;8.30;;;4.30;;
76495;SDS011;65329;52.544;4.662;2024-03-25T14:17:42;6.03;;;3.90;;
76495;SDS011;65329;52.544;4.662;2024-03-25T14:20:09;6.68;;;3.75;;
76495;SDS011;65329;52.544;4.662;2024-03-25T14:22:36;7.15;;;3.72;;
76495;SDS011;65329;52.544;4.662;2024-03-25T14:25:02;5.55;;;4.07;;
76495;SDS011;65329;52.544;4.662;2024-03-25T14:27:28;7.72;;;3.97;;
76495;SDS011;65329;52.544;4.662;2024-03-25T14:29:54;9.05;;;5.07;;
76495;SDS011;65329;52.544;4.662;2024-03-25T14:32:21;5.88;;;3.53;;
76495;SDS011;65329;52.544;4.662;2024-03-25T14:34:48;5.60;;;3.40;;
76495;SDS011;65329;52.544;4.662;2024-03-25T14:37:14;5.50;;;3.50;;
76495;SDS011;65329;52.544;4.662;2024-03-25T14:39:41;7.05;;;3.70;;
76495;SDS011;65329;52.544;4.662;2024-03-25T14:42:07;5.63;;;3.30;;
76495;SDS011;65329;52.544;4.662;2024-03-25T14:44:37;8.40;;;4.03;;
76495;SDS011;65329;52.544;4.662;2024-03-25T14:47:04;8.68;;;3.35;;
76495;SDS011;65329;52.544;4.662;2024-03-25T14:49:30;4.85;;;2.88;;
76495;SDS011;65329;52.544;4.662;2024-03-25T14:51:57;3.38;;;2.70;;
76495;SDS011;65329;52.544;4.662;2024-03-25T14:54:23;4.97;;;2.33;;
76495;SDS011;65329;52.544;4.662;2024-03-25T14:56:59;5.38;;;3.10;;
76495;SDS011;65329;52.544;4.662;2024-03-25T14:59:27;6.32;;;3.28;;
76495;SDS011;65329;52.544;4.662;2024-03-25T15:01:54;5.70;;;2.65;;
76495;SDS011;65329;52.544;4.662;2024-03-25T15:04:23;6.95;;;2.88;;
76495;SDS011;65329;52.544;4.662;2024-03-25T15:06:50;5.80;;;2.58;;
76495;SDS011;65329;52.544;4.662;2024-03-25T15:09:16;4.25;;;3.03;;
76495;SDS011;65329;52.544;4.662;2024-03-25T15:11:42;4.70;;;2.90;;
76495;SDS011;65329;52.544;4.662;2024-03-25T15:14:08;5.07;;;2.83;;
76495;SDS011;65329;52.544;4.662;2024-03-25T15:16:34;6.93;;;3.15;;
76495;SDS011;65329;52.544;4.662;2024-03-25T15:19:00;5.10;;;3.00;;
76495;SDS011;65329;52.544;4.662;2024-03-25T15:21:26;6.70;;;2.88;;
76495;SDS011;65329;52.544;4.662;2024-03-25T15:23:52;5.43;;;2.40;;
76495;SDS011;65329;52.544;4.662;2024-03-25T15:26:18;3.78;;;2.20;;
76495;SDS011;65329;52.544;4.662;2024-03-25T15:28:45;5.90;;;2.53;;
76495;SDS011;65329;52.544;4.662;2024-03-25T15:31:11;6.32;;;2.70;;
76495;SDS011;65329;52.544;4.662;2024-03-25T15:33:36;6.70;;;2.45;;
76495;SDS011;65329;52.544;4.662;2024-03-25T15:36:03;5.72;;;2.38;;
76495;SDS011;65329;52.544;4.662;2024-03-25T15:38:29;5.95;;;2.65;;
76495;SDS011;65329;52.544;4.662;2024-03-25T15:40:55;5.03;;;2.65;;
76495;SDS011;65329;52.544;4.662;2024-03-25T15:43:21;3.95;;;2.50;;
76495;SDS011;65329;52.544;4.662;2024-03-25T15:45:55;6.50;;;2.30;;
76495;SDS011;65329;52.544;4.662;2024-03-25T15:48:22;6.20;;;3.15;;
76495;SDS011;65329;52.544;4.662;2024-03-25T15:50:49;6.97;;;2.78;;
76495;SDS011;65329;52.544;4.662;2024-03-25T15:53:15;4.03;;;1.92;;
76495;SDS011;65329;52.544;4.662;2024-03-25T15:55:41;8.52;;;2.42;;
76495;SDS011;65329;52.544;4.662;2024-03-25T15:58:08;8.90;;;2.20;;
76495;SDS011;65329;52.544;4.662;2024-03-25T16:00:35;6.22;;;2.47;;
76495;SDS011;65329;52.544;4.662;2024-03-25T16:03:02;5.55;;;2.42;;
76495;SDS011;65329;52.544;4.662;2024-03-25T16:05:29;4.40;;;2.53;;
76495;SDS011;65329;52.544;4.662;2024-03-25T16:07:55;5.70;;;2.50;;
76495;SDS011;65329;52.544;4.662;2024-03-25T16:10:24;4.93;;;2.40;;
76495;SDS011;65329;52.544;4.662;2024-03-25T16:12:58;2.78;;;1.55;;
76495;SDS011;65329;52.544;4.662;2024-03-25T16:15:25;3.05;;;2.60;;
76495;SDS011;65329;52.544;4.662;2024-03-25T16:17:51;6.53;;;2.67;;
76495;SDS011;65329;52.544;4.662;2024-03-25T16:20:18;5.22;;;2.72;;
76495;SDS011;65329;52.544;4.662;2024-03-25T16:22:46;4.22;;;2.80;;
76495;SDS011;65329;52.544;4.662;2024-03-25T16:25:13;4.85;;;3.45;;
76495;SDS011;65329;52.544;4.662;2024-03-25T16:27:39;4.43;;;2.40;;
76495;SDS011;65329;52.544;4.662;2024-03-25T16:30:07;8.20;;;2.88;;
76495;SDS011;65329;52.544;4.662;2024-03-25T16:32:35;4.63;;;2.75;;